Time;durP1;ratioP1;P1;durP2;ratioP2;P2;SDS_P1;SDS_P2;PMS_P1;PMS_P2;Temp;Humidity;BMP_temperature;BMP_pressure;BME280_temperature;BME280_humidity;BME280_pressure;Samples;Min_cycle;Max_cycle;Signal;HPM_P1;HPM_P2
2023/03/12 00:00:46;;;;;;;8.73;8.13;;;4.10;20.80;;;;;;4975298;28;20416;-74
2023/03/12 00:03:11;;;;;;;10.47;9.67;;;4.30;20.30;;;;;;4992895;28;20768;-74
2023/03/12 00:05:41;;;;;;;10.70;9.90;;;4.30;20.30;;;;;;4992549;28;20958;-75
2023/03/12 00:08:07;;;;;;;11.30;10.60;;;4.50;19.70;;;;;;4992844;28;20229;-75
2023/03/12 00:10:33;;;;;;;11.27;10.37;;;4.60;20.10;;;;;;4992264;28;20889;-74
2023/03/12 00:12:59;;;;;;;11.67;9.63;;;4.70;20.00;;;;;;4992924;28;20409;-74
2023/03/12 00:15:25;;;;;;;10.20;9.50;;;4.60;19.70;;;;;;4992154;28;20456;-74
2023/03/12 00:17:50;;;;;;;10.93;10.23;;;4.90;19.70;;;;;;4991842;28;20570;-74
2023/03/12 00:20:17;;;;;;;9.63;9.00;;;5.10;19.70;;;;;;4974845;28;20178;-74
2023/03/12 00:22:42;;;;;;;9.93;9.33;;;5.40;18.70;;;;;;4975337;28;20223;-75
2023/03/12 00:25:12;;;;;;;9.50;8.80;;;5.70;18.10;;;;;;4992252;28;20527;-75
2023/03/12 00:27:38;;;;;;;11.03;10.17;;;6.00;17.40;;;;;;4974251;28;20321;-74
2023/03/12 00:30:04;;;;;;;10.00;9.30;;;6.20;17.10;;;;;;4992273;28;20559;-74
2023/03/12 00:32:34;;;;;;;10.37;9.63;;;6.40;16.80;;;;;;4974595;28;20421;-74
2023/03/12 00:34:59;;;;;;;10.43;9.73;;;6.50;16.70;;;;;;4992026;28;20417;-75
2023/03/12 00:37:26;;;;;;;10.37;9.53;;;6.60;16.60;;;;;;4974392;28;20421;-75
2023/03/12 00:39:52;;;;;;;9.60;8.90;;;6.60;16.50;;;;;;4974305;28;20721;-74
2023/03/12 00:42:18;;;;;;;10.40;9.50;;;6.80;16.00;;;;;;4992205;28;20508;-74
2023/03/12 00:44:44;;;;;;;9.77;9.00;;;6.80;15.80;;;;;;4991566;28;20421;-74
2023/03/12 00:47:10;;;;;;;12.20;11.30;;;6.80;15.90;;;;;;4991773;28;20963;-74
2023/03/12 00:49:36;;;;;;;10.67;9.67;;;6.80;16.20;;;;;;4973915;28;20553;-75
2023/03/12 00:52:02;;;;;;;10.27;9.57;;;6.80;16.30;;;;;;4974628;28;20456;-74
2023/03/12 00:54:28;;;;;;;11.23;10.37;;;6.80;16.30;;;;;;4973995;28;20468;-74
2023/03/12 00:56:53;;;;;;;10.60;9.80;;;6.40;16.40;;;;;;4991381;28;20456;-74
2023/03/12 00:59:19;;;;;;;10.20;9.50;;;6.10;17.40;;;;;;4991961;28;20644;-74
2023/03/12 01:01:45;;;;;;;10.63;9.80;;;5.80;17.80;;;;;;4974387;28;20232;-75
2023/03/12 01:04:10;;;;;;;11.63;10.60;;;5.70;18.50;;;;;;4974163;28;20182;-75
2023/03/12 01:06:36;;;;;;;11.17;10.37;;;5.80;17.80;;;;;;4991162;28;20208;-75
2023/03/12 01:09:04;;;;;;;11.67;10.67;;;6.00;18.00;;;;;;4974153;28;20216;-75
2023/03/12 01:11:31;;;;;;;12.23;11.00;;;6.20;17.90;;;;;;4991607;28;20241;-75
2023/03/12 01:13:57;;;;;;;12.10;11.20;;;6.10;18.20;;;;;;4991611;28;20976;-75
2023/03/12 01:16:26;;;;;;;11.90;11.10;;;6.20;17.80;;;;;;4973789;28;20449;-75
2023/03/12 01:18:53;;;;;;;11.70;10.90;;;6.30;17.80;;;;;;4991022;28;20524;-75
2023/03/12 01:21:18;;;;;;;11.83;10.90;;;6.20;18.10;;;;;;4991264;28;20581;-75
2023/03/12 01:23:44;;;;;;;12.17;11.10;;;6.30;17.80;;;;;;4991530;28;20543;-75
2023/03/12 01:26:10;;;;;;;11.70;10.90;;;6.40;17.60;;;;;;4991233;28;20197;-75
2023/03/12 01:28:35;;;;;;;11.73;10.83;;;6.50;17.40;;;;;;4990911;28;20186;-74
2023/03/12 01:31:08;;;;;;;11.60;10.60;;;6.50;17.30;;;;;;4991167;28;20181;-74
2023/03/12 01:33:34;;;;;;;12.00;11.10;;;6.60;16.90;;;;;;4990486;28;20315;-74
2023/03/12 01:35:59;;;;;;;11.50;10.60;;;6.70;17.00;;;;;;4990463;28;20453;-74
2023/03/12 01:38:25;;;;;;;11.30;10.50;;;6.70;16.80;;;;;;4990557;28;20645;-75
2023/03/12 01:40:51;;;;;;;10.70;9.97;;;6.80;16.80;;;;;;4990928;28;20263;-75
2023/03/12 01:43:27;;;;;;;11.23;10.43;;;6.80;16.60;;;;;;4990955;28;20178;-75
2023/03/12 01:46:15;;;;;;;11.50;10.60;;;6.80;16.70;;;;;;4990796;28;20193;-75
2023/03/12 01:48:44;;;;;;;11.23;10.43;;;6.90;16.60;;;;;;4973314;28;20464;-75
2023/03/12 01:51:12;;;;;;;11.90;10.70;;;6.90;16.40;;;;;;4990450;28;20417;-75
2023/03/12 01:53:41;;;;;;;11.20;10.33;;;6.90;16.50;;;;;;4990764;28;20416;-75
2023/03/12 01:56:08;;;;;;;12.30;11.33;;;6.90;16.50;;;;;;4990725;28;20429;-74
2023/03/12 01:58:36;;;;;;;11.40;10.70;;;6.90;16.80;;;;;;4973002;28;20440;-75
2023/03/12 02:01:02;;;;;;;11.57;10.87;;;6.80;16.50;;;;;;4989925;28;20941;-74
2023/03/12 02:03:31;;;;;;;11.40;10.60;;;6.50;16.80;;;;;;4972509;28;20425;-73
2023/03/12 02:06:08;;;;;;;12.10;11.20;;;6.00;17.80;;;;;;4990038;28;20193;-74
2023/03/12 02:08:41;;;;;;;12.30;11.40;;;5.70;18.50;;;;;;4972507;28;20425;-74
2023/03/12 02:11:06;;;;;;;11.53;10.77;;;5.40;19.20;;;;;;4979484;28;21036;-74
2023/03/12 02:13:32;;;;;;;11.17;10.47;;;5.20;19.60;;;;;;5006974;28;20420;-74
2023/03/12 02:15:58;;;;;;;12.73;11.83;;;5.00;20.00;;;;;;4992348;28;20252;-75
2023/03/12 02:18:24;;;;;;;12.73;11.63;;;4.90;20.40;;;;;;5009284;28;20189;-74
2023/03/12 02:20:52;;;;;;;14.20;13.10;;;4.90;20.40;;;;;;5009092;28;20420;-75
2023/03/12 02:23:41;;;;;;;11.77;11.00;;;4.80;20.70;;;;;;5009659;28;20424;-75
2023/03/12 02:26:08;;;;;;;12.10;11.30;;;5.10;20.40;;;;;;5008997;28;20420;-75
2023/03/12 02:28:41;;;;;;;12.50;11.60;;;5.20;19.40;;;;;;5009555;28;20469;-74
2023/03/12 02:31:09;;;;;;;13.10;12.00;;;5.20;19.40;;;;;;5009062;28;20856;-74
2023/03/12 02:33:35;;;;;;;13.17;12.13;;;5.10;19.80;;;;;;4991552;28;20428;-75
2023/03/12 02:36:00;;;;;;;12.93;11.70;;;5.10;19.90;;;;;;5008191;28;20428;-76
2023/03/12 02:38:44;;;;;;;12.60;11.73;;;5.00;20.20;;;;;;4991069;28;20184;-74
2023/03/12 02:41:15;;;;;;;12.73;11.93;;;5.00;20.70;;;;;;5009361;28;20260;-74
2023/03/12 02:43:48;;;;;;;14.20;13.10;;;5.00;20.40;;;;;;5008764;28;20416;-74
2023/03/12 02:46:14;;;;;;;12.93;12.03;;;4.80;20.70;;;;;;5008984;28;20464;-74
2023/03/12 02:48:39;;;;;;;12.87;11.97;;;4.90;20.80;;;;;;4991389;28;20411;-74
2023/03/12 02:51:05;;;;;;;13.93;12.97;;;4.70;21.10;;;;;;5008858;28;20417;-73
2023/03/12 02:53:31;;;;;;;13.57;12.63;;;4.50;22.00;;;;;;5009447;28;20174;-74
2023/03/12 02:55:56;;;;;;;13.43;12.23;;;4.50;21.70;;;;;;5009037;28;20197;-74
2023/03/12 02:58:22;;;;;;;14.80;13.57;;;4.50;21.80;;;;;;4991416;28;20672;-74
2023/03/12 03:00:48;;;;;;;13.83;12.70;;;4.60;21.60;;;;;;5008760;28;20235;-74
2023/03/12 03:03:13;;;;;;;15.07;13.83;;;4.70;22.00;;;;;;5009034;28;20165;-74
2023/03/12 03:05:39;;;;;;;14.57;13.47;;;4.70;21.50;;;;;;5008257;28;20800;-74
2023/03/12 03:08:05;;;;;;;12.40;11.60;;;4.70;21.60;;;;;;5009131;28;20907;-74
2023/03/12 03:10:31;;;;;;;14.53;13.50;;;4.70;22.10;;;;;;4990996;28;20690;-74
2023/03/12 03:12:56;;;;;;;14.50;13.33;;;4.70;22.00;;;;;;5009616;28;20475;-74
2023/03/12 03:15:22;;;;;;;14.27;13.03;;;4.70;22.40;;;;;;4991478;28;20667;-75
2023/03/12 03:17:48;;;;;;;14.30;13.30;;;5.10;21.70;;;;;;5008584;28;20193;-74
2023/03/12 03:20:14;;;;;;;13.70;12.80;;;5.30;20.90;;;;;;4991170;28;20177;-74
2023/03/12 03:22:39;;;;;;;16.33;14.90;;;5.50;20.90;;;;;;5009367;28;20185;-74
2023/03/12 03:25:06;;;;;;;14.83;13.30;;;5.70;20.60;;;;;;5016997;28;20923;-74
2023/03/12 03:27:32;;;;;;;14.30;13.10;;;5.90;19.90;;;;;;5007901;28;20239;-74
2023/03/12 03:29:57;;;;;;;14.17;12.87;;;6.10;19.80;;;;;;5009377;28;20966;-74
2023/03/12 03:32:23;;;;;;;14.77;13.57;;;6.20;19.60;;;;;;4991838;28;20644;-74
2023/03/12 03:34:48;;;;;;;13.43;12.53;;;6.30;19.40;;;;;;4991062;28;20189;-74
2023/03/12 03:37:14;;;;;;;14.30;13.10;;;6.40;19.10;;;;;;5008991;28;20181;-74
2023/03/12 03:39:39;;;;;;;13.70;12.43;;;6.50;18.90;;;;;;4998952;28;20200;-73
2023/03/12 03:42:05;;;;;;;14.30;13.10;;;6.40;19.10;;;;;;5018011;28;20173;-74
2023/03/12 03:44:30;;;;;;;12.93;11.77;;;6.30;19.40;;;;;;4990821;28;20196;-74
2023/03/12 03:46:56;;;;;;;12.80;12.00;;;6.30;19.30;;;;;;4990781;28;20197;-74
2023/03/12 03:49:22;;;;;;;14.90;13.80;;;6.30;18.80;;;;;;4992343;28;20713;-74
2023/03/12 03:51:48;;;;;;;13.20;12.37;;;6.10;19.40;;;;;;5011403;28;20181;-74
2023/03/12 03:54:14;;;;;;;14.37;13.37;;;6.00;19.50;;;;;;5016657;28;20172;-73
2023/03/12 03:56:40;;;;;;;13.13;12.23;;;6.00;19.80;;;;;;5001620;28;20444;-74
2023/03/12 03:59:06;;;;;;;12.27;11.37;;;5.90;19.60;;;;;;5000699;28;20431;-74
2023/03/12 04:01:31;;;;;;;12.50;11.50;;;5.90;19.50;;;;;;5015930;28;20767;-74
2023/03/12 04:03:58;;;;;;;12.10;11.20;;;5.80;19.60;;;;;;4996921;28;20169;-74
2023/03/12 04:06:24;;;;;;;11.50;10.50;;;5.80;19.70;;;;;;5009060;28;20200;-73
2023/03/12 04:08:50;;;;;;;11.67;10.80;;;5.60;20.40;;;;;;5008241;28;20536;-74
2023/03/12 04:11:19;;;;;;;11.60;10.93;;;5.70;19.80;;;;;;5008436;28;20886;-74
2023/03/12 04:13:45;;;;;;;11.67;10.87;;;5.70;19.60;;;;;;4990248;28;20188;-75
2023/03/12 04:16:11;;;;;;;11.77;11.00;;;5.40;20.60;;;;;;4990558;28;20454;-74
2023/03/12 04:18:37;;;;;;;11.53;10.70;;;5.30;21.00;;;;;;4990558;28;20803;-75
2023/03/12 04:21:04;;;;;;;14.37;13.37;;;5.20;20.90;;;;;;4990721;28;20427;-75
2023/03/12 04:23:30;;;;;;;12.53;11.73;;;5.20;21.40;;;;;;4990994;28;20557;-75
2023/03/12 04:25:57;;;;;;;13.70;12.60;;;5.30;21.00;;;;;;5010797;28;20435;-75
2023/03/12 04:28:22;;;;;;;12.67;11.87;;;5.40;21.00;;;;;;5011680;28;20181;-75
2023/03/12 04:30:58;;;;;;;11.00;10.40;;;5.50;21.10;;;;;;5013234;28;20467;-76
2023/03/12 04:33:36;;;;;;;11.10;10.30;;;5.30;21.00;;;;;;5013985;28;20213;-75
2023/03/12 04:36:02;;;;;;;12.00;11.10;;;5.10;21.50;;;;;;5015389;28;20825;-75
2023/03/12 04:38:28;;;;;;;12.30;11.13;;;5.20;21.40;;;;;;5016347;28;20416;-74
2023/03/12 04:41:09;;;;;;;11.20;10.60;;;5.40;21.00;;;;;;5014842;28;20500;-74
2023/03/12 04:43:35;;;;;;;11.60;10.70;;;5.50;21.10;;;;;;5013235;28;20404;-75
2023/03/12 04:46:01;;;;;;;11.13;10.30;;;5.70;21.20;;;;;;5012314;28;20424;-74
2023/03/12 04:48:27;;;;;;;10.40;9.80;;;5.80;21.40;;;;;;4994811;28;20181;-74
2023/03/12 04:50:54;;;;;;;10.50;9.90;;;5.80;20.90;;;;;;5013369;28;20529;-74
2023/03/12 04:53:20;;;;;;;10.80;10.07;;;6.00;20.50;;;;;;5013173;28;20773;-74
2023/03/12 04:55:45;;;;;;;10.63;10.03;;;6.10;20.70;;;;;;5012915;28;20451;-74
2023/03/12 04:58:11;;;;;;;10.90;10.30;;;6.20;20.00;;;;;;5011878;28;20417;-75
2023/03/12 05:00:39;;;;;;;11.73;11.03;;;6.10;20.50;;;;;;4994278;28;20200;-74
2023/03/12 05:03:05;;;;;;;10.60;10.00;;;6.20;20.00;;;;;;4978411;28;20182;-74
2023/03/12 05:05:30;;;;;;;11.57;10.50;;;6.30;19.90;;;;;;5012223;28;20995;-75
2023/03/12 05:07:56;;;;;;;11.37;10.67;;;6.30;20.00;;;;;;5012211;28;20235;-75
2023/03/12 05:10:21;;;;;;;11.20;10.40;;;6.20;20.10;;;;;;4994618;28;20229;-75
2023/03/12 05:12:47;;;;;;;10.53;9.83;;;6.00;20.80;;;;;;4995361;28;20643;-74
2023/03/12 05:15:12;;;;;;;11.27;10.57;;;5.90;21.30;;;;;;5012440;28;20678;-74
2023/03/12 05:17:38;;;;;;;11.13;10.53;;;6.10;21.00;;;;;;5012260;28;20655;-74
2023/03/12 05:20:05;;;;;;;10.70;9.93;;;6.10;21.10;;;;;;5012362;28;20205;-75
2023/03/12 05:22:30;;;;;;;10.73;10.03;;;6.20;21.00;;;;;;4994976;28;20273;-75
2023/03/12 05:24:56;;;;;;;10.23;9.53;;;6.20;21.50;;;;;;4995390;28;20495;-75
2023/03/12 05:27:24;;;;;;;11.33;10.63;;;6.30;21.00;;;;;;5012829;28;20178;-75
2023/03/12 05:29:50;;;;;;;12.00;11.20;;;6.20;21.50;;;;;;5012779;28;20239;-74
2023/03/12 05:32:16;;;;;;;10.80;10.20;;;6.30;20.90;;;;;;5013133;28;20835;-75
2023/03/12 05:34:41;;;;;;;11.03;10.23;;;6.50;21.70;;;;;;5012986;28;20227;-75
2023/03/12 05:37:07;;;;;;;10.90;10.10;;;6.70;20.80;;;;;;5012543;28;20543;-75
2023/03/12 05:39:32;;;;;;;10.17;9.60;;;7.00;20.40;;;;;;5013134;28;20650;-74
2023/03/12 05:41:58;;;;;;;11.83;11.00;;;7.00;20.70;;;;;;5012873;28;20173;-75
2023/03/12 05:44:24;;;;;;;10.60;9.90;;;7.10;20.40;;;;;;5013898;28;20170;-74
2023/03/12 05:46:50;;;;;;;10.83;10.23;;;7.30;20.10;;;;;;5012971;28;20280;-75
2023/03/12 05:49:16;;;;;;;10.40;9.80;;;7.50;20.00;;;;;;4995297;28;20522;-75
2023/03/12 05:51:42;;;;;;;11.30;10.50;;;7.60;19.80;;;;;;4995753;28;20404;-75
2023/03/12 05:54:09;;;;;;;10.87;10.27;;;7.70;20.00;;;;;;5013037;28;20504;-75
2023/03/12 05:56:37;;;;;;;10.43;9.80;;;7.70;20.70;;;;;;5012989;28;20185;-74
2023/03/12 05:59:04;;;;;;;11.87;11.17;;;7.70;20.60;;;;;;5013120;28;20556;-74
2023/03/12 06:01:32;;;;;;;11.17;10.47;;;7.60;21.00;;;;;;4995705;28;20482;-74
2023/03/12 06:03:58;;;;;;;11.07;10.47;;;7.40;21.80;;;;;;5012620;28;21006;-74
2023/03/12 06:06:23;;;;;;;11.43;10.73;;;7.10;22.80;;;;;;5013278;28;20519;-75
2023/03/12 06:08:50;;;;;;;11.50;10.80;;;6.90;23.70;;;;;;4995684;28;20205;-77
2023/03/12 06:11:16;;;;;;;10.93;10.33;;;6.90;24.50;;;;;;5013124;28;20166;-75
2023/03/12 06:13:42;;;;;;;12.13;11.23;;;6.90;25.10;;;;;;4995671;28;20474;-75
2023/03/12 06:16:14;;;;;;;12.73;11.73;;;7.00;25.90;;;;;;5013165;28;20436;-75
2023/03/12 06:18:40;;;;;;;11.67;10.90;;;6.80;26.60;;;;;;5012963;28;20189;-75
2023/03/12 06:21:17;;;;;;;10.80;10.13;;;6.70;26.90;;;;;;4995489;28;20925;-76
2023/03/12 06:23:44;;;;;;;12.97;11.87;;;6.80;27.00;;;;;;4994980;28;20277;-76
2023/03/12 06:26:10;;;;;;;12.37;11.63;;;6.70;27.10;;;;;;5013102;28;20458;-75
2023/03/12 06:28:37;;;;;;;12.60;11.70;;;6.60;27.70;;;;;;5013105;28;20408;-75
2023/03/12 06:31:02;;;;;;;12.07;11.27;;;6.40;28.30;;;;;;4995488;28;20902;-75
2023/03/12 06:33:28;;;;;;;12.80;12.00;;;6.30;28.70;;;;;;5012884;28;20500;-75
2023/03/12 06:35:55;;;;;;;12.00;11.30;;;6.10;28.80;;;;;;5013186;28;20189;-75
2023/03/12 06:38:21;;;;;;;12.60;11.90;;;5.60;29.20;;;;;;5013157;28;20412;-75
2023/03/12 06:41:19;;;;;;;12.10;11.50;;;5.50;30.30;;;;;;5013412;28;20423;-75
2023/03/12 06:43:45;;;;;;;12.90;12.20;;;5.60;30.20;;;;;;4949011;28;20182;-75
2023/03/12 06:46:15;;;;;;;12.30;11.60;;;5.50;30.70;;;;;;5023459;28;20428;-75
2023/03/12 06:48:41;;;;;;;13.03;12.13;;;5.70;31.50;;;;;;4998761;28;20239;-75
2023/03/12 06:51:08;;;;;;;13.93;13.13;;;5.80;31.60;;;;;;5012944;28;20408;-75
2023/03/12 06:53:34;;;;;;;13.40;12.80;;;5.90;31.20;;;;;;5012886;28;20487;-75
2023/03/12 06:56:00;;;;;;;14.27;13.20;;;5.90;32.10;;;;;;5012727;28;20432;-75
2023/03/12 06:58:26;;;;;;;13.67;12.97;;;6.10;31.80;;;;;;5013038;28;20421;-75
2023/03/12 07:00:52;;;;;;;14.43;13.43;;;6.10;30.90;;;;;;5012546;28;20416;-75
2023/03/12 07:03:17;;;;;;;13.83;12.93;;;6.00;31.00;;;;;;5012663;28;20173;-75
2023/03/12 07:05:44;;;;;;;14.17;13.37;;;6.00;31.70;;;;;;5012648;28;20479;-77
2023/03/12 07:08:10;;;;;;;27.13;24.30;;;6.10;31.40;;;;;;4982969;28;20189;-77
2023/03/12 07:10:36;;;;;;;20.30;18.70;;;6.10;32.70;;;;;;4974424;28;20458;-76
2023/03/12 07:13:01;;;;;;;12.53;11.83;;;6.40;33.80;;;;;;4992773;28;20410;-74
2023/03/12 07:15:27;;;;;;;11.67;10.97;;;6.40;32.10;;;;;;4992441;28;20530;-75
2023/03/12 07:17:52;;;;;;;16.60;15.40;;;6.30;32.50;;;;;;4975528;28;20193;-75
2023/03/12 07:20:18;;;;;;;13.90;12.93;;;6.30;32.70;;;;;;4992859;28;20170;-75
2023/03/12 07:22:44;;;;;;;14.67;13.30;;;6.00;33.20;;;;;;4992993;28;20189;-76
2023/03/12 07:25:10;;;;;;;14.80;13.83;;;5.90;34.10;;;;;;4992675;28;20269;-76
2023/03/12 07:27:35;;;;;;;15.90;14.97;;;5.60;35.50;;;;;;4981528;28;20692;-77
2023/03/12 07:30:01;;;;;;;13.80;12.87;;;5.50;36.80;;;;;;4966012;28;20457;-76
2023/03/12 07:32:27;;;;;;;14.43;13.63;;;5.30;37.90;;;;;;4970565;28;20182;-77
2023/03/12 07:34:52;;;;;;;16.53;15.30;;;5.30;38.70;;;;;;4970749;28;20179;-76
2023/03/12 07:37:18;;;;;;;14.77;13.83;;;5.10;38.10;;;;;;4987411;28;20444;-76
2023/03/12 07:39:44;;;;;;;13.47;12.77;;;5.20;37.90;;;;;;4992290;28;20189;-76
2023/03/12 07:42:11;;;;;;;14.80;13.80;;;5.00;37.70;;;;;;4989797;28;20193;-77
2023/03/12 07:44:37;;;;;;;14.60;13.80;;;4.80;38.30;;;;;;4968756;28;20221;-76
2023/03/12 07:47:03;;;;;;;14.77;13.67;;;4.90;38.90;;;;;;4992766;28;20453;-76
2023/03/12 07:49:28;;;;;;;15.57;14.60;;;4.90;38.40;;;;;;4992179;28;20202;-75
2023/03/12 07:51:54;;;;;;;13.03;12.33;;;4.80;39.40;;;;;;4992468;28;20194;-76
2023/03/12 07:54:19;;;;;;;15.07;13.67;;;5.00;39.50;;;;;;4992192;28;20648;-76
2023/03/12 07:56:45;;;;;;;15.00;13.80;;;5.10;38.60;;;;;;4992617;28;20190;-77
2023/03/12 07:59:10;;;;;;;15.57;14.57;;;5.20;37.80;;;;;;4974975;28;20239;-76
2023/03/12 08:01:36;;;;;;;14.53;13.63;;;5.10;38.00;;;;;;4995622;28;20185;-76
2023/03/12 08:04:02;;;;;;;13.70;12.90;;;5.30;37.70;;;;;;4984739;28;20223;-76
2023/03/12 08:06:28;;;;;;;15.97;14.70;;;5.50;37.00;;;;;;4959729;28;20203;-76
2023/03/12 08:08:53;;;;;;;15.10;14.10;;;5.60;37.20;;;;;;4988072;28;20194;-76
2023/03/12 08:11:19;;;;;;;14.47;13.53;;;5.70;37.30;;;;;;4996321;28;20918;-75
2023/03/12 08:13:45;;;;;;;13.97;13.07;;;5.80;37.40;;;;;;4984839;28;20526;-76
2023/03/12 08:16:11;;;;;;;13.53;12.70;;;6.00;37.40;;;;;;4995805;28;20440;-78
2023/03/12 08:18:37;;;;;;;13.50;12.60;;;6.20;35.70;;;;;;4966417;28;20206;-77
2023/03/12 08:21:03;;;;;;;14.63;13.63;;;6.40;35.70;;;;;;4976695;28;20412;-77
2023/03/12 08:23:28;;;;;;;13.47;12.53;;;6.30;34.70;;;;;;4958714;28;20183;-76
2023/03/12 08:25:54;;;;;;;14.33;13.47;;;6.40;34.50;;;;;;4994618;28;20440;-75
2023/03/12 08:28:21;;;;;;;14.50;13.70;;;6.50;35.60;;;;;;4995860;28;20182;-75
2023/03/12 08:30:52;;;;;;;14.10;13.07;;;6.70;34.90;;;;;;4995776;28;20546;-75
2023/03/12 08:33:18;;;;;;;14.97;13.87;;;6.70;34.70;;;;;;4995718;28;20492;-76
2023/03/12 08:35:44;;;;;;;13.80;12.97;;;6.80;34.30;;;;;;4978150;28;20951;-75
2023/03/12 08:38:10;;;;;;;13.10;12.40;;;6.90;34.90;;;;;;4978151;28;20409;-76
2023/03/12 08:40:36;;;;;;;12.57;11.87;;;7.00;34.40;;;;;;4995818;28;20889;-78
2023/03/12 08:43:02;;;;;;;13.57;12.77;;;7.00;34.80;;;;;;4978249;28;20552;-76
2023/03/12 08:45:27;;;;;;;13.97;13.17;;;7.00;34.80;;;;;;4995841;28;20525;-76
2023/03/12 08:47:53;;;;;;;11.67;11.07;;;7.10;35.20;;;;;;4995820;28;20564;-76
2023/03/12 08:50:21;;;;;;;13.97;13.17;;;7.10;35.80;;;;;;4996106;28;20202;-76
2023/03/12 08:52:46;;;;;;;13.30;12.40;;;7.10;35.40;;;;;;4995386;28;20261;-76
2023/03/12 08:55:12;;;;;;;13.07;12.47;;;7.00;35.90;;;;;;4977992;28;20872;-75
2023/03/12 08:57:38;;;;;;;13.00;12.20;;;7.00;35.90;;;;;;4995748;28;20170;-77
2023/03/12 09:00:08;;;;;;;11.57;10.97;;;7.00;36.00;;;;;;4978451;28;20432;-76
2023/03/12 09:02:34;;;;;;;11.83;11.13;;;7.10;35.90;;;;;;4994892;28;20425;-75
2023/03/12 09:04:59;;;;;;;11.93;11.23;;;7.20;36.30;;;;;;4995261;28;20719;-74
2023/03/12 09:07:25;;;;;;;11.20;10.60;;;7.30;36.90;;;;;;4977892;28;20579;-75
2023/03/12 09:09:52;;;;;;;13.37;12.57;;;7.30;37.60;;;;;;4978289;28;20622;-75
2023/03/12 09:12:18;;;;;;;13.20;12.40;;;7.10;38.40;;;;;;4977170;28;20182;-75
2023/03/12 09:14:44;;;;;;;13.07;12.23;;;7.20;39.00;;;;;;4977707;28;20417;-75
2023/03/12 09:17:09;;;;;;;12.43;11.70;;;7.20;39.70;;;;;;4994676;28;20217;-75
2023/03/12 09:19:35;;;;;;;12.60;11.90;;;7.30;40.30;;;;;;4995016;28;20174;-76
2023/03/12 09:22:00;;;;;;;12.40;11.60;;;7.40;40.50;;;;;;4977027;28;20178;-75
2023/03/12 09:24:26;;;;;;;12.27;11.57;;;7.50;39.60;;;;;;4977665;28;20212;-75
2023/03/12 09:26:52;;;;;;;13.27;12.47;;;7.70;39.80;;;;;;4994874;28;20190;-75
2023/03/12 09:29:17;;;;;;;12.30;11.60;;;7.80;39.70;;;;;;4994886;28;20201;-76
2023/03/12 09:31:43;;;;;;;12.87;12.07;;;7.80;40.00;;;;;;4994907;28;20189;-76
2023/03/12 09:34:08;;;;;;;12.80;12.00;;;7.70;40.70;;;;;;4995637;28;20543;-76
2023/03/12 09:36:34;;;;;;;12.90;12.20;;;7.90;40.80;;;;;;4996231;28;20205;-76
2023/03/12 09:39:01;;;;;;;13.03;12.33;;;8.00;40.60;;;;;;4996170;28;20205;-75
2023/03/12 09:41:30;;;;;;;13.50;12.60;;;8.00;40.70;;;;;;4978963;28;20505;-76
2023/03/12 09:44:04;;;;;;;12.90;12.10;;;8.20;41.10;;;;;;4998107;28;20808;-75
2023/03/12 09:46:39;;;;;;;12.13;11.43;;;8.20;42.00;;;;;;5001464;28;20440;-75
2023/03/12 09:49:32;;;;;;;12.20;11.43;;;8.30;42.80;;;;;;4984646;28;20457;-75
2023/03/12 09:52:12;;;;;;;12.23;11.47;;;8.30;42.60;;;;;;4971813;28;20467;-76
2023/03/12 09:54:46;;;;;;;12.47;11.67;;;8.30;42.60;;;;;;5001946;28;20414;-76
2023/03/12 09:57:20;;;;;;;12.10;11.40;;;8.30;43.40;;;;;;4981561;28;20538;-76
2023/03/12 09:59:46;;;;;;;12.23;11.53;;;8.30;43.60;;;;;;4979248;28;20531;-75
2023/03/12 10:02:44;;;;;;;11.40;10.80;;;8.50;43.60;;;;;;4978447;28;20469;-75
2023/03/12 10:05:22;;;;;;;11.10;10.30;;;8.60;44.30;;;;;;4989166;28;20281;-75
2023/03/12 10:07:56;;;;;;;12.87;11.87;;;8.80;44.40;;;;;;4969516;28;20456;-77
2023/03/12 10:10:55;;;;;;;10.77;10.07;;;9.00;44.50;;;;;;4997966;28;20555;-77
2023/03/12 10:13:42;;;;;;;8.87;8.37;;;9.10;44.30;;;;;;4964338;28;20529;-78
2023/03/12 10:16:24;;;;;;;8.53;8.13;;;9.00;45.50;;;;;;4983187;28;20452;-76
2023/03/12 10:19:04;;;;;;;8.47;7.97;;;9.00;46.10;;;;;;4975937;28;20426;-76
2023/03/12 10:21:32;;;;;;;7.73;7.43;;;9.00;46.60;;;;;;4979678;28;20428;-77
2023/03/12 10:24:07;;;;;;;7.93;7.60;;;9.10;46.80;;;;;;4997947;28;20496;-76
2023/03/12 10:26:43;;;;;;;8.00;7.60;;;9.20;47.30;;;;;;4994276;28;20456;-77
2023/03/12 10:29:26;;;;;;;7.47;7.17;;;9.20;46.60;;;;;;4997697;28;20449;-76
2023/03/12 10:32:03;;;;;;;7.80;7.40;;;9.30;46.90;;;;;;4997167;28;20463;-77
2023/03/12 10:34:52;;;;;;;8.20;7.60;;;9.50;47.10;;;;;;4980182;28;20413;-77
2023/03/12 10:37:30;;;;;;;8.13;7.73;;;9.50;46.70;;;;;;4990361;28;20999;-76
2023/03/12 10:39:56;;;;;;;7.63;7.33;;;9.50;47.10;;;;;;4978515;28;20476;-77
2023/03/12 10:42:27;;;;;;;7.97;7.63;;;9.50;47.30;;;;;;4967450;28;20786;-77
2023/03/12 10:44:59;;;;;;;7.60;7.10;;;9.50;47.70;;;;;;4973085;28;20537;-77
2023/03/12 10:47:34;;;;;;;7.33;7.03;;;9.60;47.80;;;;;;4995028;28;20503;-77
2023/03/12 10:50:19;;;;;;;7.87;7.47;;;9.70;47.50;;;;;;4976257;28;20469;-76
2023/03/12 10:52:47;;;;;;;8.03;7.17;;;9.60;47.80;;;;;;4961164;28;20494;-76
2023/03/12 10:55:28;;;;;;;7.50;7.07;;;9.60;49.10;;;;;;4973699;28;20444;-76
2023/03/12 10:57:55;;;;;;;7.70;7.33;;;9.60;49.90;;;;;;4983556;28;20405;-76
2023/03/12 11:00:27;;;;;;;7.40;7.00;;;9.70;50.30;;;;;;4988032;28;20425;-77
2023/03/12 11:02:57;;;;;;;7.00;6.70;;;9.60;50.80;;;;;;4965415;28;20788;-76
2023/03/12 11:05:29;;;;;;;7.40;7.10;;;9.60;52.00;;;;;;4979283;28;20572;-77
2023/03/12 11:07:56;;;;;;;7.77;7.43;;;9.60;52.00;;;;;;4966579;28;20428;-77
2023/03/12 11:10:43;;;;;;;7.10;6.80;;;9.60;52.10;;;;;;4963129;28;20532;-76
2023/03/12 11:13:30;;;;;;;7.10;6.80;;;9.50;51.90;;;;;;4990412;28;20429;-80
2023/03/12 11:16:16;;;;;;;7.67;7.27;;;9.60;52.00;;;;;;4975514;28;20536;-77
2023/03/12 11:19:00;;;;;;;6.87;6.57;;;9.70;52.10;;;;;;4984115;28;20840;-78
2023/03/12 11:21:26;;;;;;;7.10;6.70;;;9.80;51.70;;;;;;4986346;28;20425;-77
2023/03/12 11:23:55;;;;;;;7.70;7.30;;;9.90;52.20;;;;;;4985481;28;20417;-77
2023/03/12 11:26:29;;;;;;;6.97;6.67;;;10.00;51.30;;;;;;4982559;28;20441;-77
2023/03/12 11:29:05;;;;;;;7.03;6.73;;;10.10;49.20;;;;;;4984548;28;20840;-76
2023/03/12 11:31:36;;;;;;;7.67;7.23;;;10.20;49.60;;;;;;4978556;28;20421;-77
2023/03/12 11:34:09;;;;;;;7.37;7.07;;;10.30;49.40;;;;;;4985231;28;20480;-76
2023/03/12 11:36:51;;;;;;;7.70;7.30;;;10.30;48.70;;;;;;4967346;28;20498;-74
2023/03/12 11:39:31;;;;;;;7.20;6.90;;;10.40;48.70;;;;;;4978562;28;20420;-73
2023/03/12 11:42:32;;;;;;;7.33;6.60;;;10.40;49.40;;;;;;4987932;28;20490;-73
2023/03/12 11:45:13;;;;;;;6.97;6.67;;;10.50;47.80;;;;;;4980235;28;20425;-73
2023/03/12 11:47:59;;;;;;;6.57;6.37;;;10.60;48.40;;;;;;4990617;28;20413;-73
2023/03/12 11:50:29;;;;;;;6.33;6.10;;;10.70;47.40;;;;;;4991287;28;20452;-74
2023/03/12 11:53:21;;;;;;;6.80;6.40;;;10.80;46.50;;;;;;4995571;28;20493;-75
2023/03/12 11:56:10;;;;;;;6.40;6.20;;;10.80;46.90;;;;;;4994278;28;20638;-75
2023/03/12 11:58:57;;;;;;;6.03;5.83;;;10.60;46.20;;;;;;4996459;28;20480;-76
2023/03/12 12:01:50;;;;;;;6.67;6.37;;;10.70;47.40;;;;;;4995717;28;20405;-74
2023/03/12 12:04:34;;;;;;;6.23;6.03;;;10.60;46.40;;;;;;5007906;28;20409;-76
2023/03/12 12:07:04;;;;;;;7.30;6.80;;;10.70;46.50;;;;;;4977964;28;20532;-76
2023/03/12 12:09:52;;;;;;;7.40;7.10;;;10.90;46.80;;;;;;4977710;28;20474;-76
2023/03/12 12:12:36;;;;;;;7.30;7.00;;;10.90;45.70;;;;;;4988538;28;20927;-75
2023/03/12 12:15:05;;;;;;;7.13;6.83;;;11.10;45.40;;;;;;4987819;28;20421;-75
2023/03/12 12:17:58;;;;;;;7.67;7.37;;;11.10;44.90;;;;;;4964984;28;20814;-77
2023/03/12 12:20:40;;;;;;;7.70;7.23;;;11.20;45.10;;;;;;4963514;28;20434;-76
2023/03/12 12:23:19;;;;;;;7.10;6.80;;;11.30;45.10;;;;;;4964689;28;20509;-75
2023/03/12 12:25:56;;;;;;;7.27;6.97;;;11.40;43.80;;;;;;4967263;28;20460;-75
2023/03/12 12:28:25;;;;;;;7.93;7.63;;;11.50;43.00;;;;;;4959596;28;20418;-75
2023/03/12 12:31:00;;;;;;;7.60;7.20;;;11.50;42.00;;;;;;4973969;28;20465;-76
2023/03/12 12:33:50;;;;;;;7.10;6.80;;;11.60;42.10;;;;;;4972106;28;20456;-74
2023/03/12 12:36:17;;;;;;;8.33;7.70;;;11.50;40.60;;;;;;4969159;28;20477;-75
2023/03/12 12:38:51;;;;;;;8.63;8.00;;;11.40;41.60;;;;;;4970113;28;20415;-75
2023/03/12 12:41:22;;;;;;;8.20;7.60;;;11.50;41.40;;;;;;4979293;28;20783;-74
2023/03/12 12:43:57;;;;;;;8.20;7.80;;;11.50;40.40;;;;;;4978496;28;20565;-75
2023/03/12 12:46:40;;;;;;;8.20;7.90;;;11.50;40.60;;;;;;4959885;28;20449;-75
2023/03/12 12:49:13;;;;;;;8.60;8.30;;;11.50;40.30;;;;;;4960501;28;20927;-78
2023/03/12 12:51:49;;;;;;;8.10;7.60;;;11.70;39.10;;;;;;4969522;28;20485;-75